Time;durP1;ratioP1;P1;durP2;ratioP2;P2;SDS_P1;SDS_P2;PMS_P1;PMS_P2;Temp;Humidity;BMP_temperature;BMP_pressure;BME280_temperature;BME280_humidity;BME280_pressure;Samples;Min_cycle;Max_cycle;Signal;HPM_P1;HPM_P2
2022/10/05 00:00:54;;;;;;;9.93;7.57;;;16.90;91.90;;;;;;5064493;28;20260;-69
2022/10/05 00:03:21;;;;;;;11.87;7.67;;;16.90;91.80;;;;;;5057353;28;20245;-70
2022/10/05 00:05:48;;;;;;;7.33;6.63;;;16.80;91.60;;;;;;5042893;28;20205;-70
2022/10/05 00:08:17;;;;;;;9.40;7.60;;;16.80;91.70;;;;;;5058870;28;20190;-70
2022/10/05 00:10:45;;;;;;;10.80;7.17;;;16.80;91.70;;;;;;5035147;28;20202;-70
2022/10/05 00:13:15;;;;;;;8.40;7.13;;;16.70;91.80;;;;;;5061543;28;20246;-70
2022/10/05 00:15:42;;;;;;;9.57;7.30;;;16.70;91.80;;;;;;5063492;28;20217;-69
2022/10/05 00:18:16;;;;;;;9.50;7.20;;;16.70;91.90;;;;;;5037726;28;20210;-70
2022/10/05 00:20:45;;;;;;;9.40;7.67;;;16.70;92.00;;;;;;5059314;28;20195;-69
2022/10/05 00:23:31;;;;;;;10.27;7.80;;;16.70;92.10;;;;;;5059339;28;20279;-69
2022/10/05 00:26:11;;;;;;;10.47;8.33;;;16.70;92.20;;;;;;5062222;28;20205;-69
2022/10/05 00:28:40;;;;;;;7.97;7.17;;;16.70;92.20;;;;;;5065025;28;20195;-70
2022/10/05 00:31:18;;;;;;;8.27;7.37;;;16.70;92.30;;;;;;5058803;28;20195;-70
2022/10/05 00:33:46;;;;;;;8.10;7.30;;;16.70;92.20;;;;;;5045164;28;20206;-69
2022/10/05 00:36:14;;;;;;;12.97;7.90;;;16.70;92.20;;;;;;5057918;28;20201;-69
2022/10/05 00:38:42;;;;;;;7.77;6.93;;;16.70;92.20;;;;;;5044016;28;20202;-70
2022/10/05 00:41:29;;;;;;;10.40;7.80;;;16.70;92.20;;;;;;5062784;28;20271;-69
2022/10/05 00:44:13;;;;;;;9.13;7.93;;;16.60;92.20;;;;;;5050000;28;20233;-69
2022/10/05 00:46:47;;;;;;;8.40;7.60;;;16.60;92.20;;;;;;5026826;28;20251;-70
2022/10/05 00:49:28;;;;;;;9.40;7.30;;;16.60;92.20;;;;;;5050667;28;20199;-70
2022/10/05 00:52:07;;;;;;;9.43;7.90;;;16.60;92.20;;;;;;5058870;28;20529;-69
2022/10/05 00:54:54;;;;;;;10.10;8.33;;;16.60;92.20;;;;;;5046933;28;20296;-70
2022/10/05 00:57:50;;;;;;;11.57;9.30;;;16.50;92.20;;;;;;5059516;28;20576;-69
2022/10/05 01:00:22;;;;;;;14.17;9.83;;;16.60;92.30;;;;;;5025282;28;20217;-69
2022/10/05 01:03:29;;;;;;;11.23;9.60;;;16.50;92.40;;;;;;5053347;28;20658;-69
2022/10/05 01:06:21;;;;;;;10.67;8.97;;;16.60;92.60;;;;;;5058902;28;20195;-69
2022/10/05 01:08:48;;;;;;;13.50;9.70;;;16.60;92.60;;;;;;5059362;28;20202;-69
2022/10/05 01:11:25;;;;;;;10.00;8.57;;;16.60;92.60;;;;;;5058633;28;20254;-69
2022/10/05 01:13:52;;;;;;;11.50;10.17;;;16.60;92.60;;;;;;5045623;28;20198;-70
2022/10/05 01:16:25;;;;;;;13.77;10.03;;;16.60;92.50;;;;;;5043771;28;20223;-69
2022/10/05 01:19:17;;;;;;;11.87;9.63;;;16.60;92.40;;;;;;5042869;28;20633;-69
2022/10/05 01:22:06;;;;;;;10.80;9.70;;;16.50;92.40;;;;;;5058332;28;20717;-69
2022/10/05 01:24:35;;;;;;;61.53;11.30;;;16.50;92.50;;;;;;5055656;28;20217;-69
2022/10/05 01:27:27;;;;;;;9.27;8.37;;;16.50;92.50;;;;;;5044229;28;20642;-69
2022/10/05 01:30:15;;;;;;;14.87;10.40;;;16.50;92.60;;;;;;5058923;28;20199;-69
2022/10/05 01:32:57;;;;;;;15.07;10.17;;;16.50;92.70;;;;;;5040870;28;20191;-69
2022/10/05 01:35:38;;;;;;;13.60;9.97;;;16.40;92.90;;;;;;5049616;28;20207;-69
2022/10/05 01:38:41;;;;;;;13.00;10.67;;;16.40;93.00;;;;;;5051320;28;20203;-70
2022/10/05 01:41:21;;;;;;;14.07;9.10;;;16.40;93.00;;;;;;5054130;28;20213;-69
2022/10/05 01:44:06;;;;;;;12.87;9.93;;;16.40;93.00;;;;;;5041466;28;20304;-69
2022/10/05 01:47:07;;;;;;;12.00;10.10;;;16.40;93.00;;;;;;5064879;28;20263;-69
2022/10/05 01:49:47;;;;;;;10.63;9.40;;;16.30;93.00;;;;;;5015227;28;20241;-69
2022/10/05 01:52:43;;;;;;;11.57;9.13;;;16.30;93.00;;;;;;5035928;28;20198;-70
2022/10/05 01:55:20;;;;;;;11.53;10.37;;;16.30;92.90;;;;;;5046885;28;20199;-69
2022/10/05 01:58:06;;;;;;;14.70;9.20;;;16.20;92.90;;;;;;5042627;28;20238;-69
2022/10/05 02:01:14;;;;;;;10.47;9.37;;;16.20;92.90;;;;;;5061199;28;20199;-69
2022/10/05 02:04:01;;;;;;;29.53;10.33;;;16.20;92.80;;;;;;5058554;28;20556;-69
2022/10/05 02:06:40;;;;;;;30.23;7.67;;;16.20;92.70;;;;;;5042732;28;20205;-69
2022/10/05 02:09:17;;;;;;;10.33;8.37;;;16.10;92.60;;;;;;5059073;28;20198;-69
2022/10/05 02:11:51;;;;;;;10.17;8.93;;;16.00;92.60;;;;;;5041984;28;20615;-69
2022/10/05 02:14:31;;;;;;;7.87;6.87;;;16.00;92.70;;;;;;5044318;28;20219;-69
2022/10/05 02:17:04;;;;;;;8.87;7.97;;;15.90;92.80;;;;;;5062421;28;20206;-69
2022/10/05 02:19:40;;;;;;;9.33;8.00;;;15.90;92.80;;;;;;5058665;28;20264;-69
2022/10/05 02:22:22;;;;;;;12.83;11.30;;;15.80;92.80;;;;;;5058999;28;20197;-69
2022/10/05 02:24:59;;;;;;;11.50;10.40;;;15.80;92.80;;;;;;5059857;28;20206;-69
2022/10/05 02:27:33;;;;;;;10.13;9.13;;;15.80;93.10;;;;;;5044258;28;20199;-69
2022/10/05 02:30:04;;;;;;;14.13;9.13;;;15.80;92.80;;;;;;5062423;28;20248;-69
2022/10/05 02:32:44;;;;;;;15.07;10.13;;;15.80;92.70;;;;;;5047500;28;20205;-69
2022/10/05 02:35:14;;;;;;;12.83;10.77;;;15.70;92.70;;;;;;5046436;28;20199;-69
2022/10/05 02:37:56;;;;;;;11.63;10.43;;;15.70;92.60;;;;;;5044649;28;20240;-69
2022/10/05 02:40:51;;;;;;;14.10;9.90;;;15.70;92.60;;;;;;5053156;28;20205;-69
2022/10/05 02:43:49;;;;;;;14.17;10.57;;;15.70;92.70;;;;;;5053008;28;20317;-69
2022/10/05 02:46:30;;;;;;;14.00;11.60;;;15.60;92.60;;;;;;5043477;28;20557;-69
2022/10/05 02:49:07;;;;;;;14.40;11.50;;;15.60;92.50;;;;;;5042383;28;20203;-69
2022/10/05 02:51:54;;;;;;;12.57;11.23;;;15.60;92.30;;;;;;5053030;28;20603;-69
2022/10/05 02:54:33;;;;;;;12.77;10.93;;;15.50;92.40;;;;;;5064387;28;20224;-69
2022/10/05 02:57:27;;;;;;;13.87;10.73;;;15.50;92.40;;;;;;5046028;28;20234;-69
2022/10/05 03:00:13;;;;;;;11.43;10.37;;;15.50;92.50;;;;;;5047486;28;20214;-69
2022/10/05 03:03:09;;;;;;;11.43;10.23;;;15.50;92.50;;;;;;5043049;28;20198;-69
2022/10/05 03:06:07;;;;;;;10.33;9.27;;;15.50;92.60;;;;;;5061369;28;20282;-69
2022/10/05 03:08:53;;;;;;;10.20;8.97;;;15.40;92.50;;;;;;5047596;28;20214;-69
2022/10/05 03:11:30;;;;;;;13.07;11.43;;;15.40;92.60;;;;;;5049126;28;20216;-69
2022/10/05 03:13:58;;;;;;;8.93;7.57;;;15.40;92.60;;;;;;5046736;28;20209;-69
2022/10/05 03:16:35;;;;;;;15.83;8.33;;;15.40;92.60;;;;;;5043660;28;20203;-69
2022/10/05 03:19:14;;;;;;;14.80;8.30;;;15.40;92.70;;;;;;5042897;28;20569;-69
2022/10/05 03:22:06;;;;;;;18.73;8.50;;;15.40;92.80;;;;;;5052066;28;20221;-69
2022/10/05 03:24:56;;;;;;;23.37;8.77;;;15.40;92.90;;;;;;5045956;28;20283;-69
2022/10/05 03:27:32;;;;;;;10.97;9.47;;;15.40;92.90;;;;;;5044063;28;20210;-69
2022/10/05 03:30:21;;;;;;;10.77;8.93;;;15.40;92.70;;;;;;5032338;28;20446;-69
2022/10/05 03:32:54;;;;;;;9.43;8.53;;;15.30;92.60;;;;;;5039609;28;20537;-69
2022/10/05 03:35:45;;;;;;;10.73;8.37;;;15.30;92.60;;;;;;5046254;28;20275;-69
2022/10/05 03:38:17;;;;;;;11.93;9.77;;;15.30;92.50;;;;;;5046788;28;20266;-69
2022/10/05 03:41:09;;;;;;;10.77;9.70;;;15.30;92.50;;;;;;5051688;28;20190;-69
2022/10/05 03:43:44;;;;;;;9.47;8.00;;;15.20;92.50;;;;;;5060693;28;20220;-69
2022/10/05 03:46:36;;;;;;;8.83;7.47;;;15.20;92.50;;;;;;5049866;28;20224;-69
2022/10/05 03:49:17;;;;;;;10.90;9.53;;;15.20;92.50;;;;;;5044318;28;20285;-69
2022/10/05 03:52:16;;;;;;;11.13;10.00;;;15.20;92.50;;;;;;5044039;28;20209;-69
2022/10/05 03:55:00;;;;;;;12.93;9.67;;;15.10;92.30;;;;;;5053304;28;20206;-69
2022/10/05 03:57:33;;;;;;;15.10;9.00;;;15.10;92.20;;;;;;5047087;28;20249;-69
2022/10/05 04:00:14;;;;;;;10.50;8.53;;;15.10;92.10;;;;;;5054328;28;20212;-69
2022/10/05 04:02:56;;;;;;;10.90;8.77;;;15.10;92.20;;;;;;5042240;28;20209;-69
2022/10/05 04:05:49;;;;;;;14.00;10.60;;;15.00;92.20;;;;;;5049993;28;20241;-69
2022/10/05 04:08:22;;;;;;;13.87;12.03;;;15.00;92.30;;;;;;5050216;28;20224;-69
2022/10/05 04:10:52;;;;;;;25.90;12.97;;;15.00;92.50;;;;;;5052479;28;20564;-69
2022/10/05 04:13:48;;;;;;;36.97;13.93;;;15.10;92.60;;;;;;5061770;28;20210;-69
2022/10/05 04:16:28;;;;;;;55.60;12.37;;;15.10;92.70;;;;;;5041791;28;20656;-69
2022/10/05 04:19:24;;;;;;;54.53;12.17;;;15.10;92.80;;;;;;5046263;28;20216;-69
2022/10/05 04:21:55;;;;;;;28.57;12.17;;;15.10;93.10;;;;;;5051804;28;20259;-69
2022/10/05 04:24:34;;;;;;;15.90;11.20;;;15.10;93.20;;;;;;5060169;28;20219;-69
2022/10/05 04:27:31;;;;;;;13.53;11.87;;;15.10;93.30;;;;;;5061565;28;20194;-69
2022/10/05 04:30:18;;;;;;;12.23;10.90;;;15.10;93.40;;;;;;5032972;28;20283;-69
2022/10/05 04:32:56;;;;;;;10.83;9.27;;;15.20;93.50;;;;;;5049100;28;20202;-69
2022/10/05 04:35:30;;;;;;;9.40;8.53;;;15.20;93.50;;;;;;5044474;28;20223;-68
2022/10/05 04:38:36;;;;;;;10.00;9.00;;;15.10;93.40;;;;;;5045448;28;20232;-69
2022/10/05 04:41:32;;;;;;;10.40;9.40;;;15.20;93.50;;;;;;5059058;28;20635;-69
2022/10/05 04:44:24;;;;;;;16.10;9.93;;;15.20;93.50;;;;;;5045336;28;20221;-68
2022/10/05 04:47:00;;;;;;;14.67;10.00;;;15.20;93.60;;;;;;5044878;28;20206;-69
2022/10/05 04:49:41;;;;;;;15.07;10.33;;;15.30;93.70;;;;;;5039854;28;20241;-69
2022/10/05 04:52:42;;;;;;;13.37;10.10;;;15.30;93.70;;;;;;5041857;28;20201;-69
2022/10/05 04:55:34;;;;;;;14.23;10.90;;;15.30;93.80;;;;;;5053398;28;20269;-69
2022/10/05 04:58:28;;;;;;;21.37;11.13;;;15.40;93.80;;;;;;5057813;28;20214;-68
2022/10/05 05:01:40;;;;;;;15.83;11.67;;;15.40;93.90;;;;;;5044511;28;20214;-68
2022/10/05 05:04:32;;;;;;;15.67;11.00;;;15.40;94.00;;;;;;5053600;28;20215;-68
2022/10/05 05:07:14;;;;;;;20.07;11.50;;;15.40;94.00;;;;;;5051837;28;20216;-69
2022/10/05 05:10:01;;;;;;;20.60;12.03;;;15.40;94.10;;;;;;5045129;28;20237;-69
2022/10/05 05:12:46;;;;;;;19.97;12.33;;;15.40;94.20;;;;;;5044437;28;20291;-69
2022/10/05 05:15:39;;;;;;;20.80;12.47;;;15.50;94.20;;;;;;5048432;28;20267;-68
2022/10/05 05:18:19;;;;;;;19.67;11.93;;;15.40;94.20;;;;;;5059552;28;20241;-68
2022/10/05 05:21:07;;;;;;;27.97;12.30;;;15.50;94.20;;;;;;5044237;28;20215;-68
2022/10/05 05:23:57;;;;;;;19.07;12.77;;;15.50;94.20;;;;;;5057982;28;20280;-68
2022/10/05 05:27:06;;;;;;;15.97;12.00;;;15.50;94.20;;;;;;5037210;28;20223;-68
2022/10/05 05:29:45;;;;;;;17.00;12.57;;;15.40;94.20;;;;;;5037313;28;20217;-69
2022/10/05 05:32:24;;;;;;;23.70;12.33;;;15.40;94.20;;;;;;5044648;28;20201;-68
2022/10/05 05:35:00;;;;;;;14.37;12.73;;;15.40;94.20;;;;;;5043208;28;20206;-68
2022/10/05 05:38:09;;;;;;;16.90;12.93;;;15.40;94.20;;;;;;5043896;28;20660;-68
2022/10/05 05:40:56;;;;;;;16.50;12.53;;;15.40;94.20;;;;;;5041049;28;20213;-68
2022/10/05 05:43:29;;;;;;;18.57;12.30;;;15.40;94.20;;;;;;5028203;28;20206;-69
2022/10/05 05:46:15;;;;;;;32.07;12.50;;;15.40;94.20;;;;;;5044559;28;20229;-69
2022/10/05 05:48:45;;;;;;;36.33;13.90;;;15.40;94.20;;;;;;5051847;28;20206;-69
2022/10/05 05:51:31;;;;;;;21.53;12.67;;;15.40;94.20;;;;;;5047957;28;20597;-69
2022/10/05 05:54:16;;;;;;;21.37;12.93;;;15.40;94.30;;;;;;5043072;28;20244;-69
2022/10/05 05:56:52;;;;;;;22.13;11.87;;;15.40;94.30;;;;;;5052069;28;20230;-68
2022/10/05 05:59:29;;;;;;;18.10;11.40;;;15.50;94.30;;;;;;5058304;28;20191;-68
2022/10/05 06:02:08;;;;;;;21.20;11.20;;;15.50;94.20;;;;;;5057705;28;20186;-68
2022/10/05 06:04:40;;;;;;;23.67;13.50;;;15.60;94.10;;;;;;5064539;28;20232;-69
2022/10/05 06:07:15;;;;;;;30.17;13.07;;;15.60;94.10;;;;;;5047209;28;20202;-69
2022/10/05 06:09:52;;;;;;;24.87;13.63;;;15.60;94.00;;;;;;5062959;28;20276;-68
2022/10/05 06:12:31;;;;;;;16.30;14.33;;;15.70;94.10;;;;;;5038793;28;20206;-68
2022/10/05 06:15:30;;;;;;;15.13;13.30;;;15.70;94.20;;;;;;5063694;28;20254;-68
2022/10/05 06:18:03;;;;;;;15.17;13.50;;;15.80;94.40;;;;;;5036487;28;20552;-68
2022/10/05 06:21:03;;;;;;;16.80;14.90;;;15.80;94.50;;;;;;5033163;28;20225;-66
2022/10/05 06:23:49;;;;;;;17.27;15.23;;;16.00;94.60;;;;;;5036131;28;20646;-66
2022/10/05 06:26:36;;;;;;;17.23;14.27;;;16.00;94.60;;;;;;5061020;28;20212;-66
2022/10/05 06:29:07;;;;;;;16.57;13.20;;;16.10;94.60;;;;;;5064994;28;20194;-66
2022/10/05 06:32:19;;;;;;;14.53;13.10;;;16.20;94.60;;;;;;5054491;28;20217;-66
2022/10/05 06:34:52;;;;;;;14.20;12.80;;;16.40;94.60;;;;;;5033436;28;20221;-68
2022/10/05 06:37:33;;;;;;;23.03;13.30;;;16.40;94.50;;;;;;5045172;28;20301;-65
2022/10/05 06:40:12;;;;;;;20.03;12.73;;;16.50;94.60;;;;;;5061100;28;20240;-65
2022/10/05 06:42:56;;;;;;;30.67;11.93;;;16.60;94.60;;;;;;5047385;28;20233;-66
2022/10/05 06:46:11;;;;;;;32.37;13.20;;;16.70;94.50;;;;;;5062194;28;20245;-67
2022/10/05 06:49:22;;;;;;;16.87;12.63;;;16.80;94.50;;;;;;5038797;28;20337;-69
2022/10/05 06:52:54;;;;;;;31.73;11.83;;;16.90;94.40;;;;;;5062203;28;20206;-69
2022/10/05 06:55:46;;;;;;;28.07;12.63;;;17.00;94.40;;;;;;5054381;28;20272;-68
2022/10/05 06:58:34;;;;;;;14.17;11.67;;;17.10;94.30;;;;;;5048854;28;20204;-68
2022/10/05 07:01:15;;;;;;;14.93;10.83;;;17.20;94.30;;;;;;5051420;28;20220;-69
2022/10/05 07:04:07;;;;;;;15.50;12.20;;;17.30;94.30;;;;;;5045390;28;20310;-69
2022/10/05 07:06:48;;;;;;;13.97;12.57;;;17.30;94.20;;;;;;5061219;28;20195;-69
2022/10/05 07:09:32;;;;;;;16.00;14.50;;;17.50;94.20;;;;;;5054195;28;20664;-69
2022/10/05 07:12:16;;;;;;;16.30;14.60;;;17.60;94.20;;;;;;5047157;28;20631;-69
2022/10/05 07:15:08;;;;;;;17.17;14.87;;;17.70;94.10;;;;;;5045470;28;20651;-69
2022/10/05 07:18:12;;;;;;;17.53;15.63;;;17.80;94.10;;;;;;5052762;28;20304;-69
2022/10/05 07:21:13;;;;;;;20.23;17.73;;;17.90;93.90;;;;;;5057506;28;20195;-69
2022/10/05 07:24:03;;;;;;;26.43;21.37;;;18.00;93.70;;;;;;5054988;28;20256;-69
2022/10/05 07:26:38;;;;;;;22.47;19.40;;;18.20;93.40;;;;;;5053610;28;20206;-69
2022/10/05 07:29:11;;;;;;;29.33;23.07;;;18.30;93.40;;;;;;5051905;28;20535;-69
2022/10/05 07:31:51;;;;;;;24.90;20.70;;;18.40;93.30;;;;;;5051824;28;20295;-69
2022/10/05 07:34:36;;;;;;;28.47;22.67;;;18.50;92.90;;;;;;5046524;28;20199;-70
2022/10/05 07:40:10;;;;;;;29.20;23.03;;;18.70;92.70;;;;;;5043846;28;20209;-71
2022/10/05 07:43:06;;;;;;;30.73;24.07;;;18.80;92.80;;;;;;5044084;28;20218;-70
2022/10/05 07:45:51;;;;;;;29.83;23.47;;;19.00;92.70;;;;;;5053414;28;20230;-70
2022/10/05 07:48:22;;;;;;;26.83;20.63;;;19.20;92.30;;;;;;5046482;28;20228;-70
2022/10/05 07:51:00;;;;;;;23.47;20.97;;;19.30;92.00;;;;;;5029604;28;20225;-70
2022/10/05 07:53:41;;;;;;;24.30;21.13;;;19.40;91.60;;;;;;5041250;28;20629;-70
2022/10/05 07:56:20;;;;;;;27.93;21.27;;;19.50;91.40;;;;;;5059376;28;20242;-70
2022/10/05 07:59:00;;;;;;;27.70;23.57;;;19.60;91.20;;;;;;5048551;28;20208;-70
2022/10/05 08:01:40;;;;;;;29.03;24.80;;;19.70;91.00;;;;;;5059335;28;20219;-70
2022/10/05 08:04:20;;;;;;;31.93;22.90;;;19.80;90.90;;;;;;5044149;28;20642;-71
2022/10/05 08:06:58;;;;;;;25.63;20.87;;;19.90;90.70;;;;;;5063776;28;20197;-70
2022/10/05 08:09:58;;;;;;;27.97;21.57;;;20.00;90.50;;;;;;5060988;28;20201;-71
2022/10/05 08:12:43;;;;;;;27.57;22.63;;;20.10;90.70;;;;;;5056954;28;20204;-70
2022/10/05 08:15:21;;;;;;;25.53;21.07;;;20.30;90.50;;;;;;5055231;28;20259;-71
2022/10/05 08:17:53;;;;;;;24.43;20.53;;;20.50;90.30;;;;;;5066447;28;20229;-70
2022/10/05 08:20:44;;;;;;;24.13;19.73;;;20.60;89.60;;;;;;5061626;28;20206;-71
2022/10/05 08:23:14;;;;;;;22.63;19.63;;;20.70;89.00;;;;;;5059238;28;20203;-71
2022/10/05 08:25:56;;;;;;;27.53;19.10;;;20.80;88.80;;;;;;5055537;28;20222;-71
2022/10/05 08:28:36;;;;;;;21.97;16.97;;;20.90;88.30;;;;;;5062537;28;20194;-71
2022/10/05 08:31:03;;;;;;;23.13;19.33;;;21.00;87.90;;;;;;5061143;28;20205;-71
2022/10/05 08:33:42;;;;;;;22.93;19.47;;;21.00;87.50;;;;;;5061831;28;20576;-71
2022/10/05 08:36:13;;;;;;;23.20;18.30;;;21.00;87.50;;;;;;5056460;28;20202;-71
2022/10/05 08:38:41;;;;;;;20.53;18.17;;;21.10;87.80;;;;;;5061367;28;20205;-71
2022/10/05 08:41:45;;;;;;;20.07;17.90;;;21.20;87.40;;;;;;5063391;28;20248;-71
2022/10/05 08:44:32;;;;;;;24.07;17.63;;;21.30;86.80;;;;;;5057883;28;20288;-71
2022/10/05 08:47:11;;;;;;;18.90;16.87;;;21.40;86.80;;;;;;5058573;28;20263;-71
2022/10/05 08:50:01;;;;;;;20.77;17.60;;;21.60;86.40;;;;;;5060102;28;20199;-69
2022/10/05 08:52:52;;;;;;;19.57;17.57;;;21.70;86.10;;;;;;5061383;28;20202;-67
2022/10/05 08:55:41;;;;;;;24.47;17.63;;;22.00;85.50;;;;;;5056083;28;20194;-66
2022/10/05 08:58:20;;;;;;;22.03;16.80;;;22.10;85.10;;;;;;5061782;28;20259;-67
2022/10/05 09:00:58;;;;;;;22.10;16.60;;;22.30;84.20;;;;;;5062215;28;20202;-67
2022/10/05 09:03:58;;;;;;;21.27;16.93;;;22.50;83.50;;;;;;5059104;28;20228;-65
2022/10/05 09:06:46;;;;;;;20.60;17.60;;;22.60;82.80;;;;;;5058344;28;20530;-67
2022/10/05 09:09:16;;;;;;;18.87;16.70;;;22.70;81.80;;;;;;5059693;28;20195;-69
2022/10/05 09:12:05;;;;;;;21.77;17.47;;;22.90;81.10;;;;;;5059140;28;20790;-67
2022/10/05 09:14:49;;;;;;;17.40;15.23;;;23.00;79.60;;;;;;5062239;28;20667;-66
2022/10/05 09:18:00;;;;;;;20.03;15.43;;;23.00;79.30;;;;;;5054819;28;20232;-66
2022/10/05 09:20:48;;;;;;;17.77;15.53;;;23.00;79.20;;;;;;5059497;28;20623;-66
2022/10/05 09:23:38;;;;;;;13.07;10.90;;;23.00;79.80;;;;;;5042349;28;20194;-67
2022/10/05 09:26:28;;;;;;;11.50;10.30;;;23.10;79.80;;;;;;5063655;28;20241;-67
2022/10/05 09:29:01;;;;;;;12.17;10.87;;;23.20;78.70;;;;;;5054553;28;20634;-68
2022/10/05 09:31:50;;;;;;;11.87;9.80;;;23.30;78.50;;;;;;5059167;28;20235;-66
2022/10/05 09:34:30;;;;;;;17.03;11.53;;;23.40;77.30;;;;;;5052709;28;20237;-69
2022/10/05 09:37:12;;;;;;;15.20;9.63;;;23.50;77.00;;;;;;5059418;28;20194;-67
2022/10/05 09:40:11;;;;;;;13.07;9.57;;;23.60;76.80;;;;;;5064987;28;20206;-67
2022/10/05 09:42:47;;;;;;;11.23;9.10;;;23.80;76.80;;;;;;5037208;28;20272;-66
2022/10/05 09:45:52;;;;;;;13.53;8.90;;;23.90;76.70;;;;;;5042848;28;20626;-66
2022/10/05 09:48:37;;;;;;;11.80;9.83;;;24.10;76.90;;;;;;5054614;28;20509;-69
2022/10/05 09:51:09;;;;;;;14.40;10.00;;;24.20;75.20;;;;;;5056922;28;20572;-70
2022/10/05 09:53:51;;;;;;;13.93;8.20;;;24.30;74.70;;;;;;5045883;28;20208;-69
2022/10/05 09:56:58;;;;;;;15.43;10.00;;;24.30;74.70;;;;;;5061340;28;20237;-69
2022/10/05 09:59:38;;;;;;;11.60;10.00;;;24.40;74.40;;;;;;5052648;28;20199;-68
2022/10/05 10:02:42;;;;;;;9.60;7.30;;;24.40;73.90;;;;;;5040600;28;20194;-66
2022/10/05 10:05:09;;;;;;;7.20;5.57;;;24.50;73.60;;;;;;5027713;28;20222;-70
2022/10/05 10:08:20;;;;;;;8.10;6.80;;;24.60;73.30;;;;;;5057700;28;20670;-68
2022/10/05 10:11:15;;;;;;;9.67;7.43;;;24.60;72.80;;;;;;5051817;28;20198;-69
2022/10/05 10:13:45;;;;;;;9.87;7.03;;;24.70;72.40;;;;;;5055788;28;20218;-70
2022/10/05 10:16:40;;;;;;;9.17;7.83;;;24.80;72.10;;;;;;5042195;28;20210;-70
2022/10/05 10:20:00;;;;;;;7.80;7.00;;;24.80;71.40;;;;;;5056534;28;20684;-71
2022/10/05 10:22:48;;;;;;;13.13;6.30;;;24.90;71.90;;;;;;5051402;28;20215;-67
2022/10/05 10:25:37;;;;;;;8.43;5.90;;;25.00;71.50;;;;;;5058891;28;20224;-69
2022/10/05 10:28:16;;;;;;;8.67;5.63;;;25.00;70.80;;;;;;5056208;28;20199;-68
2022/10/05 10:31:15;;;;;;;6.23;5.63;;;25.00;69.80;;;;;;5056106;28;20206;-70
2022/10/05 10:34:18;;;;;;;5.80;3.87;;;25.10;69.40;;;;;;5064423;28;20209;-68
2022/10/05 10:37:22;;;;;;;9.10;4.87;;;25.10;68.80;;;;;;5059950;28;20573;-69
2022/10/05 10:40:34;;;;;;;10.17;4.53;;;25.00;68.90;;;;;;5054775;28;20639;-66
2022/10/05 10:43:21;;;;;;;6.00;4.03;;;25.00;69.40;;;;;;5030782;28;20594;-67
2022/10/05 10:46:09;;;;;;;6.07;3.67;;;25.00;69.20;;;;;;5061441;28;20214;-67
2022/10/05 10:48:50;;;;;;;5.30;4.77;;;25.20;69.30;;;;;;5060744;28;20225;-67
2022/10/05 10:51:45;;;;;;;4.70;3.93;;;25.40;68.80;;;;;;5059931;28;20640;-67
2022/10/05 10:54:20;;;;;;;9.03;4.37;;;25.50;68.20;;;;;;5060640;28;20198;-67
2022/10/05 10:57:03;;;;;;;6.33;4.40;;;25.70;68.20;;;;;;5063869;28;20297;-67
2022/10/05 11:00:01;;;;;;;6.20;4.37;;;25.70;68.00;;;;;;5061636;28;20273;-67
2022/10/05 11:02:36;;;;;;;7.03;4.57;;;25.90;66.60;;;;;;5050673;28;20211;-67
2022/10/05 11:05:06;;;;;;;6.67;4.37;;;25.90;66.60;;;;;;5059548;28;20217;-67
2022/10/05 11:07:51;;;;;;;5.60;3.93;;;25.90;65.40;;;;;;5045457;28;20216;-67
2022/10/05 11:10:52;;;;;;;5.27;2.70;;;25.90;65.20;;;;;;5052643;28;20252;-67
2022/10/05 11:14:01;;;;;;;5.30;3.67;;;25.90;65.30;;;;;;5048687;28;20232;-67
2022/10/05 11:16:49;;;;;;;6.53;3.30;;;25.80;64.80;;;;;;5060276;28;20201;-67
2022/10/05 11:19:37;;;;;;;5.53;3.33;;;25.80;65.00;;;;;;5053579;28;20202;-68
2022/10/05 11:22:21;;;;;;;7.40;4.17;;;25.90;64.90;;;;;;5060578;28;20508;-68
2022/10/05 11:25:15;;;;;;;5.53;3.70;;;25.90;64.30;;;;;;5056000;28;20254;-67
2022/10/05 11:28:13;;;;;;;5.40;3.63;;;26.00;63.70;;;;;;5065366;28;20221;-67
2022/10/05 11:31:01;;;;;;;5.70;3.80;;;26.10;62.60;;;;;;5066732;28;20201;-67
2022/10/05 11:33:47;;;;;;;6.83;3.87;;;26.20;62.60;;;;;;5061232;28;20783;-67
2022/10/05 11:36:45;;;;;;;7.57;4.07;;;26.30;62.90;;;;;;5060522;28;20214;-67
2022/10/05 11:39:32;;;;;;;6.50;3.90;;;26.30;61.80;;;;;;5063531;28;20211;-67
2022/10/05 11:42:17;;;;;;;6.57;4.13;;;26.40;61.80;;;;;;5062376;28;20207;-67
2022/10/05 11:45:25;;;;;;;8.10;3.93;;;26.50;62.10;;;;;;5045544;28;20206;-67
2022/10/05 11:48:19;;;;;;;4.83;4.33;;;26.60;61.70;;;;;;5047394;28;20221;-67
2022/10/05 11:50:58;;;;;;;10.07;5.43;;;26.60;60.60;;;;;;5059930;28;20523;-67
2022/10/05 11:53:31;;;;;;;8.17;5.67;;;26.60;60.80;;;;;;5060421;28;20195;-68
2022/10/05 11:56:34;;;;;;;13.27;7.63;;;26.70;61.00;;;;;;5058165;28;20303;-67
2022/10/05 11:59:25;;;;;;;14.03;8.07;;;26.70;61.20;;;;;;5060256;28;20202;-67
2022/10/05 12:02:04;;;;;;;6.90;4.80;;;26.80;61.40;;;;;;5045336;28;20253;-67
2022/10/05 12:04:58;;;;;;;6.87;4.93;;;26.90;60.30;;;;;;5059260;28;20271;-67
2022/10/05 12:07:54;;;;;;;4.93;3.83;;;26.90;58.50;;;;;;5061249;28;20190;-67
2022/10/05 12:10:43;;;;;;;8.17;5.57;;;26.80;59.10;;;;;;5051788;28;20275;-67
2022/10/05 12:13:29;;;;;;;8.40;5.20;;;26.70;59.00;;;;;;5061482;28;20522;-67
2022/10/05 12:16:17;;;;;;;5.67;4.93;;;26.60;58.90;;;;;;5059460;28;20713;-67
2022/10/05 12:18:50;;;;;;;7.37;4.77;;;26.60;56.70;;;;;;5058055;28;20434;-67
2022/10/05 12:21:26;;;;;;;7.00;5.07;;;26.60;58.00;;;;;;5061485;28;20190;-67
2022/10/05 12:24:02;;;;;;;8.33;5.33;;;26.60;57.90;;;;;;5064513;28;20332;-67
2022/10/05 12:26:43;;;;;;;6.73;5.73;;;26.50;57.60;;;;;;5056785;28;20525;-67
2022/10/05 12:29:25;;;;;;;7.90;7.10;;;26.50;56.90;;;;;;5054274;28;20207;-67
2022/10/05 12:31:59;;;;;;;10.57;5.93;;;26.60;56.20;;;;;;5053390;28;20206;-68
2022/10/05 12:34:32;;;;;;;7.30;5.63;;;26.60;55.70;;;;;;5060016;28;20199;-67
2022/10/05 12:37:27;;;;;;;5.43;4.87;;;26.60;56.00;;;;;;5061722;28;20190;-67
2022/10/05 12:40:09;;;;;;;5.57;4.07;;;26.60;56.20;;;;;;5058669;28;20204;-69
2022/10/05 12:42:51;;;;;;;7.10;5.00;;;26.70;57.20;;;;;;5045526;28;20210;-67
2022/10/05 12:46:00;;;;;;;6.60;5.07;;;26.70;57.00;;;;;;5059799;28;20213;-70
2022/10/05 12:48:42;;;;;;;5.33;4.37;;;26.70;57.10;;;;;;5024387;28;20701;-68
2022/10/05 12:51:30;;;;;;;8.00;3.73;;;26.70;57.40;;;;;;5055499;28;20195;-67
2022/10/05 12:54:20;;;;;;;5.27;4.10;;;26.80;58.30;;;;;;5046559;28;20271;-67
2022/10/05 12:57:00;;;;;;;7.10;4.73;;;26.90;58.20;;;;;;5057444;28;20718;-68
2022/10/05 12:59:47;;;;;;;5.40;3.93;;;26.90;57.60;;;;;;5064142;28;20221;-69
2022/10/05 13:02:38;;;;;;;5.13;4.60;;;26.90;57.20;;;;;;5041720;28;20642;-70
2022/10/05 13:05:08;;;;;;;6.90;4.70;;;26.80;56.20;;;;;;5062410;28;20238;-68
2022/10/05 13:07:59;;;;;;;8.70;5.40;;;26.80;56.20;;;;;;5048121;28;20226;-72
2022/10/05 13:10:38;;;;;;;7.47;6.17;;;26.70;55.30;;;;;;5057670;28;20201;-69
2022/10/05 13:13:05;;;;;;;61.53;7.00;;;26.60;54.90;;;;;;5060539;28;20208;-68
2022/10/05 13:15:55;;;;;;;6.97;5.43;;;26.40;55.90;;;;;;5060538;28;20222;-70
2022/10/05 13:18:29;;;;;;;6.30;5.70;;;26.30;56.70;;;;;;5063171;28;20222;-69
2022/10/05 13:21:08;;;;;;;6.20;5.60;;;26.00;56.80;;;;;;5057620;28;20268;-67
2022/10/05 13:23:57;;;;;;;9.93;5.60;;;25.70;57.00;;;;;;5061060;28;20204;-70
2022/10/05 13:26:32;;;;;;;6.50;5.90;;;25.50;58.10;;;;;;5061103;28;20284;-67
2022/10/05 13:28:59;;;;;;;8.67;5.97;;;25.20;58.00;;;;;;5055102;28;20250;-67
2022/10/05 13:31:30;;;;;;;9.30;6.00;;;25.00;58.50;;;;;;5054471;28;20702;-67
2022/10/05 13:34:16;;;;;;;9.57;5.37;;;24.90;59.20;;;;;;5061786;28;20584;-68
2022/10/05 13:36:58;;;;;;;5.80;5.20;;;24.80;58.90;;;;;;5055701;28;20611;-70
2022/10/05 13:39:43;;;;;;;6.63;5.53;;;24.90;59.20;;;;;;5061388;28;20215;-69
2022/10/05 13:43:10;;;;;;;7.17;5.30;;;25.00;59.10;;;;;;5062483;28;20195;-67
2022/10/05 13:45:43;;;;;;;6.27;4.60;;;25.20;58.50;;;;;;4961563;28;20209;-69
2022/10/05 13:48:28;;;;;;;8.80;4.90;;;25.30;58.80;;;;;;4961572;28;20206;-69
2022/10/05 13:51:44;;;;;;;6.50;5.63;;;25.40;58.80;;;;;;5018696;28;20209;-70
2022/10/05 13:54:23;;;;;;;5.00;4.50;;;25.60;58.90;;;;;;5064333;28;20602;-66
2022/10/05 13:57:16;;;;;;;5.30;4.57;;;25.70;58.80;;;;;;5059691;28;20598;-68
2022/10/05 14:00:01;;;;;;;9.47;6.23;;;25.80;58.10;;;;;;5057826;28;20210;-68
2022/10/05 14:02:40;;;;;;;16.10;6.13;;;25.80;58.30;;;;;;5040693;28;20662;-70
2022/10/05 14:05:22;;;;;;;9.07;6.20;;;25.90;58.60;;;;;;5051290;28;20402;-70
2022/10/05 14:07:51;;;;;;;7.90;6.13;;;25.80;58.60;;;;;;5061498;28;20210;-68